KSTJ/STJ METAR and TAF weather

Enter ICAO airport designator
Station Type Date Time Source
KSTJ METAR 2021/09/28 04:53 UTC NOAA

KSTJ 280453Z AUTO 00000KT 10SM CLR 16/14 A2986 RMK AO2 SLP104 T01610139 $


Station Type Date Time Source
KSTJ Decoded METAR 2021/09/28 04:53 UTC NOAA

ROSECRANS MEMORIAL AIRPORT, MO, United States (KSTJ) 39-46N 94-55W 247M
Sep 28, 2021 - 12:53 AM EDT / 2021.09.28 0453 UTC
Wind: Calm:0
Visibility: 10 mile(s):0
Sky conditions: clear
Temperature: 61.0 F (16.1 C)
Dew Point: 57.0 F (13.9 C)
Relative Humidity: 86%
Pressure (altimeter): 29.86 in. Hg (1011 hPa)
ob: KSTJ 280453Z AUTO 00000KT 10SM CLR 16/14 A2986 RMK AO2 SLP104 T01610139
cycle: 5

Station Type Date Time Source
KSTJ TAF 2021/09/27 18:22 UTC NOAA

TAF KSTJ 271720Z 2718/2818 23012G20KT P6SM SKC
FM280000 VRB03KT P6SM SKC

Example: see airport list